Time;durP1;ratioP1;P1;durP2;ratioP2;P2;SDS_P1;SDS_P2;PMS_P1;PMS_P2;Temp;Humidity;BMP_temperature;BMP_pressure;BME280_temperature;BME280_humidity;BME280_pressure;Samples;Min_cycle;Max_cycle;Signal;HPM_P1;HPM_P2
2024/01/29 00:00:47;;;;;;;3.50;3.20;;;8.20;95.40;;;;;;5004705;28;20609;-32
2024/01/29 00:03:16;;;;;;;3.33;3.10;;;8.20;95.40;;;;;;5022217;28;20435;-32
2024/01/29 00:05:44;;;;;;;3.80;3.30;;;8.20;95.50;;;;;;5042201;28;20488;-28
2024/01/29 00:08:13;;;;;;;3.53;3.20;;;8.20;95.50;;;;;;5025048;28;20448;-29
2024/01/29 00:10:41;;;;;;;5.00;3.60;;;8.20;95.50;;;;;;5004311;28;20452;-26
2024/01/29 00:13:07;;;;;;;4.03;2.80;;;8.20;95.50;;;;;;5026226;28;21362;-33
2024/01/29 00:15:35;;;;;;;3.53;3.23;;;8.20;95.60;;;;;;5039972;28;20426;-30
2024/01/29 00:18:01;;;;;;;6.30;3.40;;;8.20;95.60;;;;;;5035165;28;20216;-31
2024/01/29 00:20:27;;;;;;;2.97;2.67;;;8.20;95.60;;;;;;5022048;28;20443;-33
2024/01/29 00:22:58;;;;;;;4.90;3.33;;;8.20;95.60;;;;;;5022916;28;20464;-28
2024/01/29 00:25:26;;;;;;;3.10;2.90;;;8.20;95.60;;;;;;5023700;28;20598;-30
2024/01/29 00:27:55;;;;;;;3.10;2.80;;;8.20;95.70;;;;;;5026299;28;20424;-33
2024/01/29 00:30:21;;;;;;;4.13;2.97;;;8.20;95.70;;;;;;5021989;28;20795;-27
2024/01/29 00:32:52;;;;;;;3.20;3.00;;;8.20;95.70;;;;;;5022290;28;20419;-30
2024/01/29 00:35:18;;;;;;;5.57;3.53;;;8.20;95.70;;;;;;5020363;28;20443;-30
2024/01/29 00:37:46;;;;;;;5.43;3.03;;;8.20;95.70;;;;;;5024934;28;20489;-32
2024/01/29 00:40:17;;;;;;;4.30;3.40;;;8.20;95.80;;;;;;5007405;28;20904;-29
2024/01/29 00:42:43;;;;;;;4.07;3.00;;;8.20;95.70;;;;;;5018770;28;21028;-34
2024/01/29 00:45:09;;;;;;;3.43;3.10;;;8.30;95.80;;;;;;5034537;28;20428;-31
2024/01/29 00:47:35;;;;;;;3.53;3.23;;;8.20;95.80;;;;;;5022581;28;21024;-31
2024/01/29 00:50:08;;;;;;;3.13;2.83;;;8.20;95.80;;;;;;5023315;28;20997;-30
2024/01/29 00:52:34;;;;;;;3.70;3.30;;;8.30;95.90;;;;;;5042193;28;20772;-28
2024/01/29 00:55:03;;;;;;;3.60;3.30;;;8.20;95.90;;;;;;5040504;28;20433;-29
2024/01/29 00:57:29;;;;;;;3.47;3.17;;;8.30;95.90;;;;;;5039740;28;20415;-27
2024/01/29 00:59:57;;;;;;;3.40;3.10;;;8.20;95.90;;;;;;5025117;28;20442;-31
2024/01/29 01:02:23;;;;;;;3.67;3.10;;;8.20;96.00;;;;;;5025060;28;20447;-30
2024/01/29 01:04:49;;;;;;;3.37;3.07;;;8.30;96.00;;;;;;5021656;28;20557;-28
2024/01/29 01:07:18;;;;;;;4.97;2.90;;;8.20;96.00;;;;;;5027233;28;21084;-29
2024/01/29 01:09:46;;;;;;;3.37;3.07;;;8.30;96.10;;;;;;5021413;28;20860;-27
2024/01/29 01:12:15;;;;;;;4.00;3.23;;;8.20;96.10;;;;;;5030057;28;20447;-26
2024/01/29 01:14:46;;;;;;;3.47;3.10;;;8.20;96.10;;;;;;5020049;28;20424;-26
2024/01/29 01:17:14;;;;;;;3.27;2.97;;;8.20;96.20;;;;;;5019958;28;20463;-28
2024/01/29 01:19:40;;;;;;;3.50;2.80;;;8.20;96.20;;;;;;5020342;28;20431;-34
2024/01/29 01:22:06;;;;;;;3.83;3.43;;;8.20;96.20;;;;;;5029876;28;20464;-32
2024/01/29 01:24:34;;;;;;;4.03;3.10;;;8.20;96.20;;;;;;5023096;28;20927;-26
2024/01/29 01:27:03;;;;;;;3.53;3.20;;;8.30;96.20;;;;;;5028028;28;20467;-27
2024/01/29 01:29:29;;;;;;;3.57;3.27;;;8.20;96.50;;;;;;5003378;28;20459;-29
2024/01/29 01:31:55;;;;;;;6.23;2.87;;;8.20;96.10;;;;;;5019496;28;20481;-30
2024/01/29 01:34:21;;;;;;;3.20;2.90;;;8.20;96.20;;;;;;5021501;28;20507;-29
2024/01/29 01:36:52;;;;;;;3.67;3.30;;;8.20;96.20;;;;;;5019722;28;20426;-29
2024/01/29 01:39:18;;;;;;;3.53;3.20;;;8.20;96.20;;;;;;5006296;28;20415;-28
2024/01/29 01:41:51;;;;;;;4.10;3.70;;;8.20;96.20;;;;;;5039301;28;20911;-28
2024/01/29 01:44:17;;;;;;;5.60;3.60;;;8.30;96.30;;;;;;5031355;28;21187;-30
2024/01/29 01:46:46;;;;;;;4.57;3.53;;;8.30;96.20;;;;;;5031218;28;20561;-28
2024/01/29 01:49:15;;;;;;;3.67;2.97;;;8.20;96.20;;;;;;5024491;28;20955;-30
2024/01/29 01:51:44;;;;;;;3.13;2.93;;;8.20;96.20;;;;;;5020673;28;20458;-28
2024/01/29 01:54:13;;;;;;;3.00;2.73;;;8.20;96.20;;;;;;5027536;28;20445;-30
2024/01/29 01:56:40;;;;;;;2.70;2.50;;;8.20;96.10;;;;;;5020259;28;20462;-30
2024/01/29 01:59:09;;;;;;;3.50;3.20;;;8.30;96.20;;;;;;5020826;28;20451;-29
2024/01/29 02:01:38;;;;;;;4.60;3.43;;;8.20;96.20;;;;;;5019924;28;20523;-30
2024/01/29 02:04:05;;;;;;;3.90;3.57;;;8.20;96.20;;;;;;5030169;28;20586;-30
2024/01/29 02:06:31;;;;;;;3.87;3.20;;;8.20;96.20;;;;;;5038434;28;20541;-30
2024/01/29 02:09:01;;;;;;;3.07;2.77;;;8.30;96.30;;;;;;5031706;28;20440;-28
2024/01/29 02:11:29;;;;;;;3.60;3.30;;;8.20;96.50;;;;;;5019005;28;20443;-30
2024/01/29 02:13:55;;;;;;;3.70;3.40;;;8.30;96.30;;;;;;5028900;28;20424;-32
2024/01/29 02:16:21;;;;;;;3.70;3.40;;;8.30;96.30;;;;;;5019900;28;20423;-32
2024/01/29 02:18:52;;;;;;;4.83;3.40;;;8.30;96.30;;;;;;5019998;28;20431;-27
2024/01/29 02:21:20;;;;;;;5.63;3.50;;;8.30;96.30;;;;;;5018576;28;20466;-33
2024/01/29 02:23:46;;;;;;;5.07;3.43;;;8.20;96.30;;;;;;5018953;28;20415;-31
2024/01/29 02:26:13;;;;;;;3.70;3.40;;;8.30;96.40;;;;;;5028447;28;20486;-30
2024/01/29 02:28:41;;;;;;;4.50;4.10;;;8.30;96.40;;;;;;5020866;28;20504;-26
2024/01/29 02:31:10;;;;;;;2.87;2.67;;;8.20;96.40;;;;;;5029547;28;20458;-27
2024/01/29 02:33:39;;;;;;;3.60;3.10;;;8.30;96.50;;;;;;5038889;28;20442;-34
2024/01/29 02:36:05;;;;;;;4.10;3.20;;;8.20;96.40;;;;;;5023498;28;20581;-31
2024/01/29 02:38:34;;;;;;;3.33;3.03;;;8.20;96.40;;;;;;5019266;28;20817;-26
2024/01/29 02:41:02;;;;;;;3.23;2.93;;;8.20;96.40;;;;;;5028595;28;20449;-25
2024/01/29 02:43:28;;;;;;;3.10;2.90;;;8.20;96.50;;;;;;5021882;28;20424;-28
2024/01/29 02:45:54;;;;;;;4.40;3.73;;;8.20;96.40;;;;;;5020332;28;20471;-29
2024/01/29 02:48:20;;;;;;;3.40;3.00;;;8.20;96.50;;;;;;5018460;28;20431;-30
2024/01/29 02:50:49;;;;;;;3.57;3.20;;;8.20;96.60;;;;;;5019591;28;20439;-28
2024/01/29 02:53:15;;;;;;;5.23;3.63;;;8.30;96.60;;;;;;5021454;28;20514;-31
2024/01/29 02:55:41;;;;;;;4.60;4.20;;;8.30;96.60;;;;;;5020624;28;20439;-35
2024/01/29 02:58:07;;;;;;;5.73;3.57;;;8.20;96.70;;;;;;5020058;28;20412;-30
2024/01/29 03:00:33;;;;;;;4.40;3.40;;;8.30;96.70;;;;;;5024171;28;20439;-32
2024/01/29 03:03:02;;;;;;;3.20;2.93;;;8.30;96.70;;;;;;5022499;28;20473;-27
2024/01/29 03:05:30;;;;;;;3.73;3.33;;;8.30;96.80;;;;;;5040184;28;21076;-26
2024/01/29 03:07:56;;;;;;;3.67;3.37;;;8.30;96.70;;;;;;5027316;28;20428;-29
2024/01/29 03:10:27;;;;;;;3.80;3.20;;;8.30;96.70;;;;;;5031760;28;20450;-28
2024/01/29 03:12:57;;;;;;;4.07;3.37;;;8.30;96.70;;;;;;5028037;28;20438;-31
2024/01/29 03:15:26;;;;;;;3.30;3.10;;;8.30;96.80;;;;;;5040458;28;20410;-32
2024/01/29 03:17:53;;;;;;;3.73;3.10;;;8.30;96.80;;;;;;5033393;28;20461;-30
2024/01/29 03:20:23;;;;;;;3.30;3.00;;;8.30;96.80;;;;;;5025735;28;20469;-29
2024/01/29 03:22:49;;;;;;;3.93;3.40;;;8.30;96.80;;;;;;5018518;28;20469;-31
2024/01/29 03:25:17;;;;;;;3.77;3.53;;;8.30;96.90;;;;;;5037143;28;20438;-28
2024/01/29 03:27:43;;;;;;;4.37;3.97;;;8.20;96.80;;;;;;5030520;28;20518;-28
2024/01/29 03:30:10;;;;;;;3.30;3.10;;;8.30;96.80;;;;;;5034139;28;20576;-28
2024/01/29 03:32:38;;;;;;;4.33;3.40;;;8.20;96.80;;;;;;5041221;28;20982;-31
2024/01/29 03:35:04;;;;;;;3.57;3.23;;;8.20;96.80;;;;;;5029609;28;20452;-32
2024/01/29 03:37:31;;;;;;;3.23;3.03;;;8.20;96.80;;;;;;5024137;28;20469;-29
2024/01/29 03:39:57;;;;;;;3.70;3.40;;;8.20;96.80;;;;;;5037155;28;20447;-30
2024/01/29 03:42:23;;;;;;;5.23;3.50;;;8.20;96.70;;;;;;5026542;28;20458;-29
2024/01/29 03:44:50;;;;;;;5.90;3.13;;;8.20;96.70;;;;;;5023732;28;20204;-30
2024/01/29 03:47:18;;;;;;;4.27;3.87;;;8.30;96.80;;;;;;5033094;28;20531;-34
2024/01/29 03:49:45;;;;;;;4.13;3.83;;;8.20;96.70;;;;;;5045010;28;20490;-29
2024/01/29 03:52:15;;;;;;;3.40;3.10;;;8.20;96.70;;;;;;5044177;28;20449;-29
2024/01/29 03:54:43;;;;;;;4.03;3.63;;;8.20;96.70;;;;;;5024843;28;20442;-27
2024/01/29 03:57:10;;;;;;;3.80;3.50;;;8.20;96.70;;;;;;5025421;28;20444;-28
2024/01/29 03:59:36;;;;;;;3.47;3.17;;;8.20;96.60;;;;;;5042559;28;20514;-28
2024/01/29 04:02:02;;;;;;;3.43;3.20;;;8.20;96.60;;;;;;5025880;28;20522;-29
2024/01/29 04:04:28;;;;;;;4.07;3.70;;;8.20;96.50;;;;;;5041172;28;20450;-30
2024/01/29 04:06:56;;;;;;;3.77;3.50;;;8.20;96.50;;;;;;5022392;28;20590;-29
2024/01/29 04:09:30;;;;;;;4.40;3.67;;;8.20;96.50;;;;;;5031024;28;20428;-27
2024/01/29 04:11:58;;;;;;;4.10;3.70;;;8.20;96.40;;;;;;5033853;28;20442;-30
2024/01/29 04:14:24;;;;;;;3.70;3.40;;;8.20;96.50;;;;;;5019249;28;20564;-28
2024/01/29 04:16:53;;;;;;;3.50;3.30;;;8.20;96.50;;;;;;5024157;28;20461;-33
2024/01/29 04:19:19;;;;;;;3.73;3.23;;;8.30;96.50;;;;;;5032544;28;20430;-26
2024/01/29 04:21:47;;;;;;;4.70;3.63;;;8.20;96.40;;;;;;5026957;28;20467;-34
2024/01/29 04:24:15;;;;;;;4.10;3.70;;;8.20;96.50;;;;;;5005090;28;20484;-34
2024/01/29 04:26:43;;;;;;;4.13;3.77;;;8.20;96.50;;;;;;5022921;28;20460;-31
2024/01/29 04:29:12;;;;;;;3.80;3.47;;;8.20;96.50;;;;;;5022213;28;20425;-29
2024/01/29 04:31:38;;;;;;;5.40;3.27;;;8.20;96.40;;;;;;5033798;28;20954;-27
2024/01/29 04:34:04;;;;;;;4.30;3.90;;;8.20;96.50;;;;;;5040930;28;20424;-32
2024/01/29 04:36:30;;;;;;;4.93;3.60;;;8.30;96.50;;;;;;5030620;28;20447;-28
2024/01/29 04:38:59;;;;;;;3.53;3.23;;;8.20;96.50;;;;;;5011821;28;20459;-26
2024/01/29 04:41:27;;;;;;;3.70;3.40;;;8.20;96.60;;;;;;5029758;28;20455;-31
2024/01/29 04:43:53;;;;;;;4.20;3.80;;;8.20;96.70;;;;;;5022159;28;20440;-33
2024/01/29 04:46:27;;;;;;;3.43;3.13;;;8.20;96.70;;;;;;5022349;28;20913;-31
2024/01/29 04:48:53;;;;;;;3.97;3.67;;;8.20;96.80;;;;;;5022383;28;20424;-29
2024/01/29 04:51:21;;;;;;;4.73;4.10;;;8.20;96.80;;;;;;5038868;28;20446;-30
2024/01/29 04:53:50;;;;;;;3.93;3.60;;;8.20;96.80;;;;;;5041007;28;20434;-31
2024/01/29 04:56:22;;;;;;;4.13;3.83;;;8.20;96.90;;;;;;5030347;28;20440;-26
2024/01/29 04:58:52;;;;;;;4.90;4.50;;;8.20;96.90;;;;;;4984593;28;20433;-27
2024/01/29 05:01:19;;;;;;;3.70;3.40;;;8.20;96.90;;;;;;5028274;28;20455;-30
2024/01/29 05:03:45;;;;;;;3.30;3.07;;;8.20;96.90;;;;;;5004049;28;21117;-28
2024/01/29 05:06:11;;;;;;;4.23;3.70;;;8.20;97.00;;;;;;5026208;28;20471;-28
2024/01/29 05:08:40;;;;;;;3.90;3.50;;;8.20;96.90;;;;;;5031394;28;20982;-29
2024/01/29 05:11:09;;;;;;;3.80;3.50;;;8.20;96.90;;;;;;5031253;28;20454;-28
2024/01/29 05:13:35;;;;;;;4.07;3.67;;;8.20;96.90;;;;;;5021557;28;20416;-28
2024/01/29 05:16:04;;;;;;;3.80;3.30;;;8.20;96.90;;;;;;5034388;28;20518;-28
2024/01/29 05:18:30;;;;;;;4.37;3.97;;;8.20;97.00;;;;;;5038751;28;20431;-28
2024/01/29 05:20:56;;;;;;;4.30;3.87;;;8.20;97.00;;;;;;5020301;28;20478;-26
2024/01/29 05:23:25;;;;;;;3.63;3.33;;;8.20;97.00;;;;;;5019833;28;20446;-31
2024/01/29 05:25:51;;;;;;;4.60;3.57;;;8.20;97.00;;;;;;5041087;28;20586;-32
2024/01/29 05:28:18;;;;;;;3.30;3.10;;;8.20;97.00;;;;;;5022932;28;20986;-29
2024/01/29 05:30:44;;;;;;;3.93;3.63;;;8.20;97.00;;;;;;5019731;28;20474;-29
2024/01/29 05:33:10;;;;;;;3.70;3.30;;;8.20;97.10;;;;;;5021246;28;20511;-30
2024/01/29 05:35:37;;;;;;;3.87;3.50;;;8.20;97.10;;;;;;5019646;28;20456;-32
2024/01/29 05:38:03;;;;;;;4.20;3.90;;;8.20;97.10;;;;;;5019715;28;20424;-27
2024/01/29 05:40:29;;;;;;;3.80;3.50;;;8.20;97.10;;;;;;5023942;28;20446;-32
2024/01/29 05:42:56;;;;;;;5.33;3.80;;;8.20;97.10;;;;;;5021450;28;20452;-31
2024/01/29 05:45:22;;;;;;;5.20;3.93;;;8.20;97.10;;;;;;5020022;28;20423;-29
2024/01/29 05:47:48;;;;;;;4.10;3.63;;;8.20;97.10;;;;;;5034234;28;20431;-34
2024/01/29 05:50:14;;;;;;;4.20;3.80;;;8.20;97.10;;;;;;5023613;28;20903;-30
2024/01/29 05:52:43;;;;;;;4.20;3.80;;;8.20;97.10;;;;;;5028848;28;20435;-30
2024/01/29 05:55:09;;;;;;;4.07;3.67;;;8.20;97.10;;;;;;5019669;28;20481;-28
2024/01/29 05:57:36;;;;;;;4.17;3.77;;;8.20;97.10;;;;;;5019703;28;20427;-31
2024/01/29 06:00:07;;;;;;;3.87;3.53;;;8.20;97.10;;;;;;5019183;28;20775;-30
2024/01/29 06:02:45;;;;;;;5.10;3.10;;;8.20;97.10;;;;;;5027949;28;20443;-31
2024/01/29 06:05:14;;;;;;;4.57;3.97;;;8.20;97.10;;;;;;5027302;28;20497;-32
2024/01/29 06:07:40;;;;;;;4.50;4.10;;;8.20;97.00;;;;;;5029576;28;20480;-30
2024/01/29 06:10:13;;;;;;;4.33;3.50;;;8.20;97.10;;;;;;5020336;28;20440;-29
2024/01/29 06:12:42;;;;;;;4.33;3.93;;;8.20;97.00;;;;;;5020609;28;20431;-28
2024/01/29 06:15:09;;;;;;;4.00;3.60;;;8.20;97.30;;;;;;5021511;28;20474;-33
2024/01/29 06:17:35;;;;;;;3.80;3.43;;;8.20;97.10;;;;;;5019920;28;20467;-30
2024/01/29 06:20:05;;;;;;;4.73;4.20;;;8.20;97.00;;;;;;5019173;28;20435;-30
2024/01/29 06:22:31;;;;;;;4.27;3.87;;;8.20;97.10;;;;;;5035366;28;20435;-26
2024/01/29 06:24:57;;;;;;;4.30;3.90;;;8.20;97.20;;;;;;5018941;28;20954;-27
2024/01/29 06:27:28;;;;;;;4.63;3.83;;;8.20;97.50;;;;;;5003457;28;20518;-31
2024/01/29 06:29:58;;;;;;;4.43;4.03;;;8.20;97.20;;;;;;5015322;28;20430;-29
2024/01/29 06:32:24;;;;;;;4.20;3.80;;;8.20;97.30;;;;;;5039787;28;20423;-31
2024/01/29 06:34:56;;;;;;;4.70;3.97;;;8.20;97.30;;;;;;5014924;28;20429;-29
2024/01/29 06:37:25;;;;;;;4.13;3.83;;;8.20;97.40;;;;;;5038936;28;20730;-27
2024/01/29 06:39:51;;;;;;;4.83;4.00;;;8.20;97.40;;;;;;5030053;28;20423;-28
2024/01/29 06:42:17;;;;;;;5.50;3.97;;;8.20;97.40;;;;;;5038436;28;20450;-31
2024/01/29 06:44:48;;;;;;;5.27;4.70;;;8.20;97.50;;;;;;5024812;28;20546;-31
2024/01/29 06:47:17;;;;;;;4.53;3.93;;;8.20;97.50;;;;;;5027731;28;20469;-29
2024/01/29 06:49:43;;;;;;;3.97;3.67;;;8.10;97.40;;;;;;5022939;28;20442;-30
2024/01/29 06:52:09;;;;;;;4.47;4.10;;;8.20;97.50;;;;;;5026995;28;21096;-31
2024/01/29 06:54:36;;;;;;;3.93;3.63;;;8.20;97.50;;;;;;5017849;28;20431;-27
2024/01/29 06:57:04;;;;;;;5.40;3.60;;;8.20;97.50;;;;;;5018710;28;20447;-30
2024/01/29 06:59:30;;;;;;;4.23;3.80;;;8.20;97.50;;;;;;5025629;28;20432;-33
2024/01/29 07:01:59;;;;;;;4.20;3.80;;;8.20;97.50;;;;;;5005687;28;21128;-26
2024/01/29 07:04:28;;;;;;;6.00;5.00;;;8.20;97.50;;;;;;5000867;28;20490;-26
2024/01/29 07:06:56;;;;;;;4.33;3.93;;;8.10;97.50;;;;;;5028167;28;20474;-31
2024/01/29 07:09:25;;;;;;;4.60;4.20;;;8.10;97.50;;;;;;5017302;28;20423;-31
2024/01/29 07:11:51;;;;;;;4.50;4.10;;;8.10;97.50;;;;;;5024786;28;20442;-29
2024/01/29 07:14:17;;;;;;;4.27;3.80;;;8.20;97.60;;;;;;5037449;28;20446;-30
2024/01/29 07:16:46;;;;;;;4.40;3.67;;;8.20;97.60;;;;;;5001507;28;20539;-31
2024/01/29 07:19:17;;;;;;;4.20;3.90;;;8.10;97.60;;;;;;5017115;28;20974;-28
2024/01/29 07:21:43;;;;;;;4.23;3.30;;;8.20;97.60;;;;;;5020685;28;20521;-30
2024/01/29 07:24:15;;;;;;;4.63;4.00;;;8.10;97.60;;;;;;5018824;28;20427;-32
2024/01/29 07:26:44;;;;;;;4.17;3.80;;;8.10;97.70;;;;;;5022384;28;20477;-28
2024/01/29 07:29:12;;;;;;;4.10;3.73;;;8.10;97.70;;;;;;5029381;28;20440;-26
2024/01/29 07:31:38;;;;;;;4.57;4.10;;;8.10;97.60;;;;;;5026267;28;20455;-30
2024/01/29 07:34:07;;;;;;;4.40;3.80;;;8.10;97.60;;;;;;5018006;28;20424;-31
2024/01/29 07:36:35;;;;;;;5.37;4.40;;;8.10;97.70;;;;;;5016047;28;20452;-31
2024/01/29 07:39:03;;;;;;;4.13;3.83;;;8.10;97.70;;;;;;5019607;28;20451;-29
2024/01/29 07:41:31;;;;;;;6.70;4.57;;;8.10;97.70;;;;;;5020728;28;20455;-30
2024/01/29 07:43:57;;;;;;;4.63;3.57;;;8.10;97.70;;;;;;5026093;28;20510;-30
2024/01/29 07:46:24;;;;;;;4.87;4.17;;;8.10;97.70;;;;;;5031788;28;20478;-31
2024/01/29 07:48:50;;;;;;;4.47;4.07;;;8.10;97.80;;;;;;5020180;28;21468;-33
2024/01/29 07:51:17;;;;;;;6.27;3.80;;;8.10;97.70;;;;;;5032490;28;20451;-29
2024/01/29 07:53:43;;;;;;;6.40;4.23;;;8.10;97.70;;;;;;5030340;28;20787;-27
2024/01/29 07:56:10;;;;;;;6.17;4.60;;;8.10;97.80;;;;;;5029533;28;21028;-28
2024/01/29 07:58:36;;;;;;;4.03;3.67;;;8.10;97.80;;;;;;5020865;28;20545;-30
2024/01/29 08:01:02;;;;;;;4.37;4.07;;;8.10;97.80;;;;;;5021489;28;21055;-27
2024/01/29 08:03:28;;;;;;;5.00;4.50;;;8.10;97.80;;;;;;5021076;28;20447;-29
2024/01/29 08:05:56;;;;;;;4.67;3.50;;;8.10;97.80;;;;;;5009733;28;20561;-28
2024/01/29 08:08:23;;;;;;;5.23;3.67;;;8.10;97.80;;;;;;5004821;28;20863;-29
2024/01/29 08:10:50;;;;;;;5.10;3.77;;;8.10;97.80;;;;;;5021331;28;20519;-30
2024/01/29 08:13:18;;;;;;;5.17;4.13;;;8.10;97.80;;;;;;5021411;28;20428;-26
2024/01/29 08:15:46;;;;;;;5.10;3.93;;;8.10;97.80;;;;;;5019835;28;20423;-35
2024/01/29 08:18:15;;;;;;;4.50;4.10;;;8.10;97.80;;;;;;5020818;28;20458;-29
2024/01/29 08:20:41;;;;;;;7.00;4.80;;;8.10;97.80;;;;;;5019411;28;20212;-28
2024/01/29 08:23:07;;;;;;;4.77;4.30;;;8.10;97.90;;;;;;5026558;28;20818;-31
2024/01/29 08:25:34;;;;;;;5.80;4.53;;;8.10;97.90;;;;;;5021457;28;20447;-28
2024/01/29 08:28:06;;;;;;;4.93;4.13;;;8.10;97.90;;;;;;5029318;28;20681;-31
2024/01/29 08:30:37;;;;;;;6.43;3.67;;;8.10;97.90;;;;;;5029412;28;20451;-33
2024/01/29 08:33:03;;;;;;;5.07;4.13;;;8.10;98.00;;;;;;5021152;28;20837;-35
2024/01/29 08:35:32;;;;;;;4.97;4.20;;;8.10;97.90;;;;;;5011986;28;20443;-27
2024/01/29 08:38:00;;;;;;;5.83;4.33;;;8.10;98.00;;;;;;5024783;28;21038;-28
2024/01/29 08:40:31;;;;;;;5.83;4.37;;;8.10;98.00;;;;;;5023777;28;20451;-27
2024/01/29 08:42:57;;;;;;;5.07;4.27;;;8.10;98.00;;;;;;5021084;28;20966;-26
2024/01/29 08:45:25;;;;;;;4.97;4.57;;;8.10;98.00;;;;;;5019206;28;21240;-30
2024/01/29 08:47:54;;;;;;;5.20;4.40;;;8.10;98.10;;;;;;5030901;28;20860;-27
2024/01/29 08:50:26;;;;;;;5.33;4.17;;;8.10;98.10;;;;;;5018243;28;20464;-29
2024/01/29 08:52:55;;;;;;;5.97;4.30;;;8.10;98.10;;;;;;5021069;28;20510;-28
2024/01/29 08:55:23;;;;;;;4.77;3.77;;;8.10;98.10;;;;;;5020533;28;20474;-33
2024/01/29 08:57:50;;;;;;;7.60;4.10;;;8.10;98.10;;;;;;5031877;28;20422;-32
2024/01/29 09:00:18;;;;;;;5.20;4.70;;;8.10;98.20;;;;;;5022948;28;20582;-27
2024/01/29 09:02:57;;;;;;;5.87;4.63;;;8.10;98.20;;;;;;5004505;28;20470;-30
2024/01/29 09:05:23;;;;;;;4.40;4.00;;;8.10;98.20;;;;;;5020271;28;20522;-34
2024/01/29 09:07:49;;;;;;;5.47;4.60;;;8.10;98.20;;;;;;5022018;28;20435;-31
2024/01/29 09:10:15;;;;;;;7.40;4.40;;;8.10;98.20;;;;;;5021323;28;20456;-26
2024/01/29 09:12:44;;;;;;;5.90;4.30;;;8.10;98.20;;;;;;5022519;28;20497;-31
2024/01/29 09:15:14;;;;;;;7.90;4.60;;;8.20;98.30;;;;;;5004822;28;20538;-29
2024/01/29 09:17:41;;;;;;;5.77;4.80;;;8.20;98.30;;;;;;5021364;28;20440;-30
2024/01/29 09:20:10;;;;;;;4.63;4.00;;;8.10;98.20;;;;;;5021677;28;20498;-27
2024/01/29 09:22:36;;;;;;;6.40;4.90;;;8.20;98.30;;;;;;5020747;28;21078;-28
2024/01/29 09:25:02;;;;;;;5.17;4.60;;;8.20;98.30;;;;;;5031456;28;20419;-32
2024/01/29 09:27:31;;;;;;;4.83;4.27;;;8.20;98.30;;;;;;5020457;28;20479;-32
2024/01/29 09:30:04;;;;;;;5.20;4.70;;;8.20;98.40;;;;;;5021416;28;20533;-30
2024/01/29 09:32:33;;;;;;;6.10;5.07;;;8.20;98.40;;;;;;5004261;28;20486;-30
2024/01/29 09:34:59;;;;;;;5.90;4.87;;;8.20;98.40;;;;;;5022129;28;21401;-32
2024/01/29 09:37:32;;;;;;;5.43;4.93;;;8.20;98.40;;;;;;5020044;28;20895;-30
2024/01/29 09:39:58;;;;;;;7.77;5.37;;;8.20;98.40;;;;;;5022576;28;20661;-29
2024/01/29 09:42:27;;;;;;;5.40;4.60;;;8.20;98.40;;;;;;5003544;28;20428;-32
2024/01/29 09:44:55;;;;;;;5.37;4.90;;;8.20;98.40;;;;;;5034726;28;20439;-27
2024/01/29 09:47:23;;;;;;;5.10;4.40;;;8.20;98.40;;;;;;5037621;28;21235;-29
2024/01/29 09:49:52;;;;;;;5.47;4.97;;;8.20;98.40;;;;;;5010032;28;20431;-28
2024/01/29 09:52:18;;;;;;;6.20;4.50;;;8.20;98.40;;;;;;5020510;28;20496;-30
2024/01/29 09:54:49;;;;;;;5.20;4.60;;;8.30;98.50;;;;;;5009618;28;20444;-27
2024/01/29 09:57:21;;;;;;;5.67;4.50;;;8.20;98.40;;;;;;5030412;28;20440;-27
2024/01/29 09:59:47;;;;;;;7.80;4.80;;;8.20;98.40;;;;;;5013440;28;20890;-29
2024/01/29 10:02:18;;;;;;;5.27;4.77;;;8.20;98.50;;;;;;5002451;28;20455;-31
2024/01/29 10:04:47;;;;;;;8.00;4.43;;;8.30;98.50;;;;;;5023045;28;20450;-34
2024/01/29 10:07:15;;;;;;;5.40;4.90;;;8.30;98.60;;;;;;5027611;28;20475;-29
2024/01/29 10:09:43;;;;;;;6.40;5.20;;;8.30;98.50;;;;;;5038093;28;20419;-32
2024/01/29 10:12:26;;;;;;;5.50;5.00;;;8.30;98.60;;;;;;5038976;28;20500;-30
2024/01/29 10:14:55;;;;;;;5.30;4.80;;;8.30;98.50;;;;;;5012705;28;21351;-28
2024/01/29 10:17:23;;;;;;;5.30;4.80;;;8.30;98.60;;;;;;5017102;28;20469;-36
2024/01/29 10:19:51;;;;;;;7.43;5.60;;;8.30;98.60;;;;;;5023993;28;20441;-30
2024/01/29 10:22:24;;;;;;;5.70;4.63;;;8.30;98.60;;;;;;5039218;28;20435;-27
2024/01/29 10:25:04;;;;;;;4.50;4.10;;;8.30;98.60;;;;;;5012118;28;20565;-28
2024/01/29 10:27:30;;;;;;;5.77;5.17;;;8.40;98.60;;;;;;5019039;28;20478;-29
2024/01/29 10:30:01;;;;;;;4.53;4.13;;;8.40;98.60;;;;;;5027439;28;21279;-28
2024/01/29 10:32:30;;;;;;;7.60;4.70;;;8.40;98.60;;;;;;5025676;28;20450;-28
2024/01/29 10:34:58;;;;;;;5.70;5.20;;;8.40;98.50;;;;;;5033029;28;20415;-27
2024/01/29 10:37:26;;;;;;;6.07;5.00;;;8.40;98.50;;;;;;5018907;28;20420;-28
2024/01/29 10:39:58;;;;;;;8.43;4.60;;;8.40;98.60;;;;;;5017929;28;20455;-30
2024/01/29 10:42:27;;;;;;;6.00;4.90;;;8.40;98.60;;;;;;5018810;28;20419;-30
2024/01/29 10:44:58;;;;;;;5.73;4.77;;;8.40;98.50;;;;;;5017783;28;20458;-27
2024/01/29 10:47:31;;;;;;;6.30;5.60;;;8.40;98.50;;;;;;5024164;28;20467;-25
2024/01/29 10:49:58;;;;;;;7.87;5.03;;;8.50;98.50;;;;;;5018191;28;20416;-28
2024/01/29 10:52:27;;;;;;;6.07;5.00;;;8.50;98.60;;;;;;5001434;28;20507;-29
2024/01/29 10:54:57;;;;;;;7.13;4.93;;;8.50;98.50;;;;;;5017813;28;20909;-29
2024/01/29 10:57:25;;;;;;;5.60;4.97;;;8.50;98.50;;;;;;5021657;28;21428;-32
2024/01/29 10:59:57;;;;;;;5.57;4.67;;;8.50;98.60;;;;;;5018664;28;21273;-25
2024/01/29 11:02:29;;;;;;;7.20;5.13;;;8.50;98.60;;;;;;5030589;28;20422;-29
2024/01/29 11:04:55;;;;;;;13.33;6.10;;;8.50;98.60;;;;;;5018671;28;20805;-31
2024/01/29 11:07:25;;;;;;;5.87;5.10;;;8.50;98.60;;;;;;5018714;28;20473;-26
2024/01/29 11:10:20;;;;;;;5.80;4.83;;;8.50;98.50;;;;;;5020921;28;20443;-32
2024/01/29 11:12:48;;;;;;;5.30;4.80;;;8.60;98.60;;;;;;5019399;28;20431;-28
2024/01/29 11:15:18;;;;;;;6.47;4.97;;;8.50;98.50;;;;;;5001167;28;21428;-30
2024/01/29 11:17:45;;;;;;;7.00;5.00;;;8.60;98.60;;;;;;5018380;28;20443;-29
2024/01/29 11:20:15;;;;;;;6.80;5.57;;;8.60;98.60;;;;;;5021535;28;20423;-30
2024/01/29 11:22:51;;;;;;;6.47;5.67;;;8.60;98.60;;;;;;5021168;28;20484;-30
2024/01/29 11:25:19;;;;;;;5.00;4.50;;;8.60;98.60;;;;;;5023619;28;20506;-27
2024/01/29 11:27:47;;;;;;;10.17;5.17;;;8.60;98.60;;;;;;5029689;28;20485;-32
2024/01/29 11:30:19;;;;;;;7.03;5.43;;;8.60;98.60;;;;;;5007555;28;20795;-28
2024/01/29 11:32:49;;;;;;;9.10;4.80;;;8.60;98.60;;;;;;5027432;28;20427;-34
2024/01/29 11:35:20;;;;;;;5.87;4.37;;;8.60;98.60;;;;;;5030310;28;20417;-34
2024/01/29 11:37:49;;;;;;;5.80;4.97;;;8.70;98.60;;;;;;5042776;28;20500;-33
2024/01/29 11:40:43;;;;;;;7.27;4.50;;;8.70;98.70;;;;;;5022813;28;20542;-32
2024/01/29 11:43:17;;;;;;;9.20;4.70;;;8.70;98.70;;;;;;5021124;28;20432;-36
2024/01/29 11:45:46;;;;;;;9.80;5.53;;;8.70;98.60;;;;;;5004876;28;20832;-33
2024/01/29 11:48:14;;;;;;;7.00;5.03;;;8.70;98.70;;;;;;5022735;28;20435;-32
2024/01/29 11:50:51;;;;;;;9.13;5.87;;;8.70;98.60;;;;;;5020853;28;20966;-30
2024/01/29 11:53:19;;;;;;;6.33;4.80;;;8.80;98.70;;;;;;5022199;28;20422;-35
2024/01/29 11:55:48;;;;;;;5.20;4.70;;;8.80;98.70;;;;;;5004270;28;20450;-33
2024/01/29 11:58:23;;;;;;;5.77;4.80;;;8.80;98.70;;;;;;5021882;28;20434;-34
2024/01/29 12:00:53;;;;;;;6.80;5.00;;;8.80;98.70;;;;;;5022819;28;20435;-33
2024/01/29 12:03:24;;;;;;;7.30;4.77;;;8.80;98.70;;;;;;5020267;28;21206;-32
2024/01/29 12:05:53;;;;;;;6.10;5.10;;;8.80;98.70;;;;;;5004224;28;20560;-32
2024/01/29 12:08:21;;;;;;;6.40;4.80;;;8.80;98.70;;;;;;5020588;28;20959;-29
2024/01/29 12:10:48;;;;;;;6.23;5.03;;;8.80;98.70;;;;;;5022703;28;20440;-35
2024/01/29 12:13:19;;;;;;;11.37;5.60;;;8.90;98.80;;;;;;5022072;28;20471;-31
2024/01/29 12:15:47;;;;;;;5.03;4.57;;;8.80;98.70;;;;;;5004029;28;20419;-30
2024/01/29 12:18:21;;;;;;;5.57;4.97;;;8.90;98.70;;;;;;4986847;28;20805;-32
2024/01/29 12:20:48;;;;;;;5.60;5.00;;;8.90;98.70;;;;;;5020470;28;20523;-31
2024/01/29 12:23:16;;;;;;;7.53;4.97;;;8.90;98.70;;;;;;5021193;28;20959;-29
2024/01/29 12:25:46;;;;;;;7.27;5.13;;;8.90;98.70;;;;;;5019643;28;20467;-33
2024/01/29 12:28:15;;;;;;;5.90;4.57;;;8.90;98.70;;;;;;5019593;28;20420;-31
2024/01/29 12:31:06;;;;;;;6.87;5.03;;;8.90;98.70;;;;;;5019039;28;20455;-33
2024/01/29 12:33:38;;;;;;;7.47;5.23;;;8.90;98.80;;;;;;5020906;28;20419;-36
2024/01/29 12:36:13;;;;;;;5.87;4.77;;;9.00;98.80;;;;;;5019851;28;20841;-33
2024/01/29 12:38:40;;;;;;;5.20;4.70;;;9.00;98.80;;;;;;5019696;28;20590;-31
2024/01/29 12:41:06;;;;;;;6.20;4.80;;;9.00;98.80;;;;;;5021932;28;20488;-36
2024/01/29 12:43:38;;;;;;;5.87;4.83;;;9.00;98.80;;;;;;5020942;28;20451;-33
2024/01/29 12:46:12;;;;;;;5.20;4.40;;;9.00;98.80;;;;;;5021429;28;20462;-36
2024/01/29 12:48:39;;;;;;;6.63;5.53;;;9.00;98.80;;;;;;5021175;28;20419;-35
2024/01/29 12:51:11;;;;;;;5.57;4.83;;;9.10;98.90;;;;;;5024114;28;20436;-32
2024/01/29 12:53:42;;;;;;;5.83;4.90;;;9.00;98.80;;;;;;5024789;28;20436;-30
2024/01/29 12:56:08;;;;;;;6.87;5.07;;;9.00;98.80;;;;;;5029518;28;20420;-38
2024/01/29 12:58:39;;;;;;;6.40;4.87;;;9.10;98.80;;;;;;5027077;28;20420;-34
2024/01/29 13:01:06;;;;;;;5.40;4.90;;;9.10;98.80;;;;;;5032909;28;21001;-34
2024/01/29 13:03:39;;;;;;;5.47;4.70;;;9.10;98.80;;;;;;5033977;28;20508;-34